Time;durP1;ratioP1;P1;durP2;ratioP2;P2;SDS_P1;SDS_P2;PMS_P1;PMS_P2;Temp;Humidity;BMP_temperature;BMP_pressure;BME280_temperature;BME280_humidity;BME280_pressure;Samples;Min_cycle;Max_cycle;Signal;HPM_P1;HPM_P2
2023/04/18 00:01:44;;;;;;;5.80;1.10;;;;;;;10.56;46.99;99691.16;79316;1298;3013674;-60
2023/04/18 00:04:11;;;;;;;10.00;1.30;;;;;;;10.60;46.85;99687.44;79124;1298;3012382;-60
2023/04/18 00:06:41;;;;;;;8.50;1.60;;;;;;;10.64;46.59;99686.88;78109;1304;3049782;-63
2023/04/18 00:09:07;;;;;;;9.40;1.50;;;;;;;10.63;46.77;99689.40;79360;1306;3013624;-61
2023/04/18 00:11:34;;;;;;;5.00;1.00;;;;;;;10.59;46.91;99692.03;79340;1296;3013356;-60
2023/04/18 00:14:02;;;;;;;6.30;1.60;;;;;;;10.53;46.86;99689.60;78104;1298;3028544;-61
2023/04/18 00:16:29;;;;;;;2.90;1.20;;;;;;;10.51;46.83;99685.81;79378;1297;3018355;-62
2023/04/18 00:18:56;;;;;;;4.10;0.90;;;;;;;10.49;47.05;99683.54;79280;1300;3011935;-62
2023/04/18 00:21:28;;;;;;;5.60;1.00;;;;;;;10.52;46.88;99684.06;78191;1297;3026524;-61
2023/04/18 00:23:55;;;;;;;4.70;1.20;;;;;;;10.49;47.02;99680.73;79317;1295;3011806;-59
2023/04/18 00:26:23;;;;;;;4.00;1.50;;;;;;;10.42;47.09;99672.17;78257;1299;3053433;-61
2023/04/18 00:28:50;;;;;;;5.70;1.30;;;;;;;10.36;47.08;99674.61;79448;1303;3020557;-59
2023/04/18 00:31:17;;;;;;;6.60;1.40;;;;;;;10.37;47.05;99679.98;79252;1307;3011600;-61
2023/04/18 00:33:45;;;;;;;4.40;1.20;;;;;;;10.40;47.04;99677.54;78016;1301;3029008;-62
2023/04/18 00:36:11;;;;;;;5.10;1.40;;;;;;;10.38;46.97;99673.93;79452;1297;3020677;-61
2023/04/18 00:38:38;;;;;;;7.30;1.50;;;;;;;10.29;47.35;99665.36;79263;1301;3013535;-61
2023/04/18 00:41:06;;;;;;;4.50;1.30;;;;;;;10.32;47.30;99665.52;78227;1304;3026530;-61
2023/04/18 00:43:33;;;;;;;4.80;1.20;;;;;;;10.29;47.50;99662.37;79271;1299;3018715;-62
2023/04/18 00:46:00;;;;;;;5.90;1.80;;;;;;;10.27;47.57;99663.16;79199;1294;3011626;-60
2023/04/18 00:48:29;;;;;;;4.90;1.50;;;;;;;10.22;47.50;99664.87;78093;1298;3049186;-58
2023/04/18 00:50:55;;;;;;;7.70;1.60;;;;;;;10.17;47.66;99659.00;79287;1298;3015430;-62
2023/04/18 00:53:22;;;;;;;6.90;1.50;;;;;;;10.28;47.24;99655.09;79225;1302;3011644;-62
2023/04/18 00:55:50;;;;;;;3.80;1.20;;;;;;;10.22;47.35;99653.65;78195;1297;3052745;-59
2023/04/18 00:58:17;;;;;;;7.40;1.20;;;;;;;10.24;47.17;99654.08;79287;1297;3013080;-61
2023/04/18 01:00:44;;;;;;;5.70;1.40;;;;;;;10.27;47.19;99652.52;79335;1295;3011664;-62
2023/04/18 01:03:14;;;;;;;6.60;1.20;;;;;;;10.14;47.58;99652.00;78050;1300;3049797;-59
2023/04/18 01:05:40;;;;;;;4.60;1.40;;;;;;;10.03;47.71;99655.25;79421;1295;3013988;-63
2023/04/18 01:08:07;;;;;;;10.50;2.30;;;;;;;10.04;47.67;99655.19;79310;1298;3011631;-60
2023/04/18 01:10:36;;;;;;;6.10;1.10;;;;;;;10.03;47.85;99659.61;78117;1297;3054166;-61
2023/04/18 01:13:13;;;;;;;8.10;1.40;;;;;;;10.03;47.83;99656.09;79304;1300;3013165;-61
2023/04/18 01:15:46;;;;;;;3.70;1.40;;;;;;;10.08;47.35;99661.29;78111;1298;3056552;-61
2023/04/18 01:18:16;;;;;;;6.80;1.40;;;;;;;10.06;47.44;99663.48;79310;1296;3011883;-62
2023/04/18 01:20:46;;;;;;;2.10;1.00;;;;;;;10.05;47.63;99664.95;78146;1298;3053545;-62
2023/04/18 01:23:13;;;;;;;2.60;1.20;;;;;;;10.00;47.74;99661.38;79344;1300;3013465;-61
2023/04/18 01:25:40;;;;;;;10.20;1.30;;;;;;;10.01;47.77;99661.63;79404;1298;3011821;-61
2023/04/18 01:28:08;;;;;;;7.60;1.50;;;;;;;10.00;47.82;99661.02;78179;1304;3068479;-62
2023/04/18 01:30:35;;;;;;;7.90;1.40;;;;;;;9.99;47.77;99663.13;79371;1295;3012816;-63
2023/04/18 01:33:04;;;;;;;8.30;1.40;;;;;;;9.99;48.02;99659.16;79259;1299;3011830;-62
2023/04/18 01:35:32;;;;;;;6.40;1.40;;;;;;;10.01;47.82;99659.86;78062;1296;3053620;-59
2023/04/18 01:37:59;;;;;;;12.20;1.40;;;;;;;9.96;47.93;99653.70;79343;1307;3012955;-63
2023/04/18 01:40:27;;;;;;;10.80;1.30;;;;;;;10.00;47.68;99650.70;79432;1298;3011626;-62
2023/04/18 01:42:55;;;;;;;8.00;1.50;;;;;;;9.99;47.81;99651.45;78117;1298;3068477;-60
2023/04/18 01:45:22;;;;;;;6.60;1.20;;;;;;;9.94;48.21;99643.87;79488;1295;3012426;-60
2023/04/18 01:47:48;;;;;;;7.70;1.20;;;;;;;9.89;48.22;99642.02;79346;1298;3011504;-59
2023/04/18 01:50:16;;;;;;;6.30;1.20;;;;;;;9.89;48.29;99640.40;78161;1297;3027332;-60
2023/04/18 01:52:43;;;;;;;7.80;2.10;;;;;;;9.87;48.14;99639.48;79336;1299;3018905;-60
2023/04/18 01:55:09;;;;;;;10.10;1.20;;;;;;;9.86;48.28;99634.46;79556;1298;3011489;-63
2023/04/18 01:57:38;;;;;;;7.10;1.20;;;;;;;9.94;48.08;99634.59;78148;1296;3026229;-59
2023/04/18 02:00:05;;;;;;;8.20;1.60;;;;;;;9.86;48.30;99636.73;79251;1298;3013006;-62
2023/04/18 02:02:42;;;;;;;5.30;1.20;;;;;;;9.87;48.26;99632.98;78015;1295;3049921;-60
2023/04/18 02:05:09;;;;;;;13.10;1.30;;;;;;;9.88;48.20;99634.02;79149;1299;3011652;-62
2023/04/18 02:07:41;;;;;;;9.20;1.50;;;;;;;9.83;48.34;99634.08;78764;1294;3011456;-63
2023/04/18 02:10:09;;;;;;;10.40;1.70;;;;;;;9.77;48.51;99630.73;79305;1298;3013365;-61
2023/04/18 02:12:36;;;;;;;5.20;1.30;;;;;;;9.72;48.58;99631.71;79209;1300;3011627;-60
2023/04/18 02:15:05;;;;;;;13.00;1.20;;;;;;;9.73;48.67;99629.06;77995;1299;3051582;-59
2023/04/18 02:17:35;;;;;;;12.10;1.70;;;;;;;9.80;48.37;99628.84;79201;1295;3013256;-61
2023/04/18 02:20:03;;;;;;;6.20;1.30;;;;;;;9.72;48.52;99630.30;78050;1301;3026404;-62
2023/04/18 02:22:30;;;;;;;6.30;1.40;;;;;;;9.74;48.50;99628.45;79483;1299;3013867;-60
2023/04/18 02:24:56;;;;;;;12.20;1.50;;;;;;;9.68;49.08;99630.18;79242;1301;3011829;-62
2023/04/18 02:27:24;;;;;;;10.50;2.00;;;;;;;9.73;48.97;99629.77;78139;1298;3052862;-61
2023/04/18 02:29:55;;;;;;;4.80;1.40;;;;;;;9.76;48.71;99629.58;79209;1296;3011931;-62
2023/04/18 02:32:23;;;;;;;10.90;2.30;;;;;;;9.72;49.06;99627.88;78014;1295;3049947;-61
2023/04/18 02:34:50;;;;;;;5.30;1.40;;;;;;;9.62;49.24;99622.86;79219;1300;3013586;-61
2023/04/18 02:37:16;;;;;;;7.30;1.60;;;;;;;9.53;49.64;99621.02;79406;1297;3011608;-61
2023/04/18 02:39:44;;;;;;;10.00;1.20;;;;;;;9.55;49.40;99617.56;78255;1295;3028432;-60
2023/04/18 02:42:10;;;;;;;7.30;1.50;;;;;;;9.54;49.47;99616.63;79347;1298;3013687;-61
2023/04/18 02:44:37;;;;;;;7.10;1.40;;;;;;;9.56;49.57;99621.05;79285;1297;3011644;-59
2023/04/18 02:47:05;;;;;;;13.40;1.70;;;;;;;9.52;49.80;99615.67;78289;1297;3026704;-60
2023/04/18 02:49:34;;;;;;;7.30;1.40;;;;;;;9.46;49.97;99613.92;79305;1296;3013833;-60
2023/04/18 02:52:03;;;;;;;6.10;1.30;;;;;;;9.47;49.88;99617.86;78916;1295;3012648;-62
2023/04/18 02:54:30;;;;;;;5.80;1.70;;;;;;;9.49;50.04;99614.29;79368;1298;3019155;-61
2023/04/18 02:57:05;;;;;;;6.50;1.30;;;;;;;9.51;49.97;99612.40;78282;1297;3053005;-61
2023/04/18 02:59:42;;;;;;;4.90;1.30;;;;;;;9.45;50.11;99615.33;78056;1298;3052734;-61
2023/04/18 03:02:28;;;;;;;7.50;1.40;;;;;;;9.42;50.11;99625.99;78066;1295;3068763;-62
2023/04/18 03:04:57;;;;;;;4.00;1.30;;;;;;;9.44;50.18;99624.13;79435;1294;3013199;-62
2023/04/18 03:07:27;;;;;;;11.80;1.60;;;;;;;9.43;50.24;99632.73;78847;1295;3011518;-62
2023/04/18 03:09:53;;;;;;;5.60;1.10;;;;;;;9.42;50.42;99634.23;79327;1295;3012911;-59
2023/04/18 03:12:25;;;;;;;8.60;1.30;;;;;;;9.37;50.55;99633.23;78193;1298;3050171;-61
2023/04/18 03:14:52;;;;;;;6.90;1.50;;;;;;;9.35;50.76;99624.09;79258;1298;3012972;-60
2023/04/18 03:17:18;;;;;;;6.80;1.50;;;;;;;9.32;50.59;99621.77;79225;1293;3013397;-64
2023/04/18 03:19:49;;;;;;;13.10;2.30;;;;;;;9.22;50.84;99619.67;78171;1297;3051514;-62
2023/04/18 03:22:16;;;;;;;7.30;1.50;;;;;;;9.11;51.51;99621.16;79384;1300;3013873;-62
2023/04/18 03:24:53;;;;;;;11.40;1.90;;;;;;;9.12;51.35;99624.91;78168;1295;3054088;-61
2023/04/18 03:27:20;;;;;;;7.60;2.00;;;;;;;9.07;51.55;99627.81;79252;1300;3014131;-62
2023/04/18 03:29:47;;;;;;;5.70;1.80;;;;;;;9.05;51.73;99632.13;79294;1300;3013217;-63
2023/04/18 03:32:16;;;;;;;8.00;1.80;;;;;;;9.04;51.82;99637.75;78191;1296;3068350;-61
2023/04/18 03:34:42;;;;;;;5.30;1.60;;;;;;;8.91;52.17;99638.92;79230;1295;3013963;-61
2023/04/18 03:37:09;;;;;;;7.60;1.70;;;;;;;8.92;52.22;99631.21;79405;1294;3011598;-61
2023/04/18 03:39:42;;;;;;;6.00;1.70;;;;;;;8.90;52.34;99632.69;78076;1299;3051708;-62
2023/04/18 03:42:09;;;;;;;9.70;1.70;;;;;;;8.93;52.00;99630.83;79353;1299;3019153;-62
2023/04/18 03:44:36;;;;;;;7.90;2.30;;;;;;;8.94;51.96;99635.27;79275;1301;3011941;-62
2023/04/18 03:47:04;;;;;;;9.00;1.90;;;;;;;8.94;52.04;99638.27;78250;1295;3025295;-60
2023/04/18 03:49:32;;;;;;;7.30;1.90;;;;;;;8.84;52.33;99634.91;79518;1295;3013578;-63
2023/04/18 03:51:59;;;;;;;7.70;1.60;;;;;;;8.77;52.62;99629.85;79306;1295;3011591;-60
2023/04/18 03:54:27;;;;;;;9.10;1.70;;;;;;;8.82;52.34;99635.02;77989;1295;3053001;-63
2023/04/18 03:56:54;;;;;;;8.50;1.70;;;;;;;8.78;52.46;99643.93;79311;1299;3013074;-63
2023/04/18 04:01:52;;;;;;;12.60;1.80;;;;;;;8.93;52.12;99638.50;79880;1302;3013145;-60
2023/04/18 04:04:21;;;;;;;6.40;1.70;;;;;;;8.88;52.46;99644.35;79007;1302;3013067;-60
2023/04/18 04:06:47;;;;;;;7.20;2.10;;;;;;;8.81;52.52;99644.15;78863;1302;3011505;-62
2023/04/18 04:09:17;;;;;;;7.80;1.70;;;;;;;8.73;52.64;99642.47;77647;1307;3052934;-62
2023/04/18 04:11:47;;;;;;;14.00;2.50;;;;;;;8.74;52.56;99644.65;78807;1302;3014553;-62
2023/04/18 04:14:15;;;;;;;11.20;2.20;;;;;;;8.80;52.28;99639.49;75663;1302;3057336;-61
2023/04/18 04:16:44;;;;;;;8.00;2.20;;;;;;;8.73;52.83;99642.48;79248;1296;3013763;-61
2023/04/18 04:19:14;;;;;;;7.50;1.70;;;;;;;8.74;52.60;99636.83;78788;1301;3011686;-61
2023/04/18 04:21:50;;;;;;;10.80;1.80;;;;;;;8.76;52.63;99632.72;78763;1300;3011800;-60
2023/04/18 04:24:17;;;;;;;11.50;1.70;;;;;;;8.75;52.65;99632.95;79170;1300;3012996;-60
2023/04/18 04:26:47;;;;;;;9.60;2.30;;;;;;;8.69;52.68;99631.64;79238;1300;3011887;-62
2023/04/18 04:29:18;;;;;;;7.50;1.90;;;;;;;8.70;52.90;99636.16;77901;1301;3067972;-59
2023/04/18 04:31:46;;;;;;;17.50;2.10;;;;;;;8.68;52.86;99636.08;79243;1295;3013383;-61
2023/04/18 04:34:17;;;;;;;13.30;2.40;;;;;;;8.64;53.04;99636.42;78062;1294;3028406;-60
2023/04/18 04:36:43;;;;;;;11.60;1.70;;;;;;;8.67;52.76;99635.60;79266;1295;3019125;-61
2023/04/18 04:39:12;;;;;;;11.20;2.10;;;;;;;8.68;52.74;99635.52;79277;1295;3011866;-60
2023/04/18 04:41:54;;;;;;;10.70;2.10;;;;;;;8.73;52.83;99642.27;78110;1300;3052730;-61
2023/04/18 04:44:25;;;;;;;11.40;2.30;;;;;;;8.73;52.93;99644.05;79376;1300;3013034;-61
2023/04/18 04:46:54;;;;;;;7.60;1.80;;;;;;;8.85;52.41;99650.92;78089;1294;3051244;-63
2023/04/18 04:49:24;;;;;;;10.80;2.00;;;;;;;8.95;52.42;99653.61;79233;1297;3012898;-60
2023/04/18 04:51:52;;;;;;;12.60;2.50;;;;;;;8.96;51.99;99654.39;78727;1296;3011458;-61
2023/04/18 04:54:19;;;;;;;11.10;2.20;;;;;;;9.04;51.83;99647.71;79281;1296;3012955;-62
2023/04/18 04:56:46;;;;;;;10.50;1.90;;;;;;;9.11;51.75;99648.42;79188;1301;3011894;-63
2023/04/18 04:59:14;;;;;;;9.30;2.30;;;;;;;9.18;51.62;99648.21;78068;1301;3028095;-62
2023/04/18 05:01:45;;;;;;;14.70;2.10;;;;;;;9.27;51.43;99650.88;79251;1301;3011692;-61
2023/04/18 05:04:13;;;;;;;7.20;1.40;;;;;;;9.37;50.82;99652.30;78027;1304;3026884;-60
2023/04/18 05:06:39;;;;;;;13.30;2.00;;;;;;;9.50;50.56;99652.64;79234;1295;3012928;-62
2023/04/18 05:09:06;;;;;;;14.50;1.80;;;;;;;9.62;50.41;99652.54;79262;1301;3011895;-62
2023/04/18 05:11:34;;;;;;;9.70;1.70;;;;;;;9.66;50.60;99651.83;77995;1300;3028584;-62
2023/04/18 05:14:01;;;;;;;13.00;2.00;;;;;;;9.71;50.47;99646.27;79294;1299;3018513;-61
2023/04/18 05:16:27;;;;;;;18.70;2.30;;;;;;;9.75;50.28;99650.14;79202;1296;3011578;-61
2023/04/18 05:18:55;;;;;;;28.20;2.70;;;;;;;9.82;50.06;99651.98;78086;1298;3026383;-61
2023/04/18 05:21:23;;;;;;;11.00;2.10;;;;;;;9.88;49.79;99648.18;79203;1301;3013437;-61
2023/04/18 05:23:50;;;;;;;19.20;2.80;;;;;;;9.85;49.83;99647.98;79212;1296;3013664;-62
2023/04/18 05:26:17;;;;;;;25.50;2.70;;;;;;;9.80;49.71;99646.84;77997;1300;3049936;-62
2023/04/18 05:28:44;;;;;;;11.20;1.90;;;;;;;9.76;49.88;99645.17;79196;1300;3013470;-61
2023/04/18 05:31:10;;;;;;;27.10;2.40;;;;;;;9.79;49.68;99646.02;79221;1295;3011598;-61
2023/04/18 05:33:38;;;;;;;12.50;3.30;;;;;;;9.83;49.66;99640.42;78030;1300;3028284;-61
2023/04/18 05:36:06;;;;;;;15.30;2.60;;;;;;;9.89;50.10;99637.64;79256;1295;3013426;-62
2023/04/18 05:38:33;;;;;;;18.50;2.10;;;;;;;9.95;49.91;99632.41;79216;1295;3011726;-62
2023/04/18 05:41:01;;;;;;;18.70;2.50;;;;;;;9.98;49.86;99626.96;78115;1300;3050284;-61
2023/04/18 05:43:29;;;;;;;15.90;2.20;;;;;;;10.00;49.93;99625.79;79233;1300;3014157;-62
2023/04/18 05:45:55;;;;;;;12.10;2.50;;;;;;;9.86;50.16;99620.98;79493;1297;3011403;-60
2023/04/18 05:48:23;;;;;;;16.40;2.40;;;;;;;10.00;49.96;99615.33;78055;1300;3050358;-62
2023/04/18 05:50:50;;;;;;;23.40;3.10;;;;;;;10.11;49.80;99609.45;79327;1300;3013873;-64
2023/04/18 05:53:17;;;;;;;19.90;2.30;;;;;;;10.09;49.94;99612.05;79325;1301;3013858;-61
2023/04/18 05:55:47;;;;;;;15.60;3.00;;;;;;;10.00;50.28;99610.08;78139;1298;3028930;-60
2023/04/18 05:58:14;;;;;;;24.00;2.40;;;;;;;10.12;50.28;99607.14;79270;1301;3013232;-60
2023/04/18 06:00:43;;;;;;;14.80;1.80;;;;;;;10.25;50.07;99604.98;78761;1300;3011966;-62
2023/04/18 06:03:10;;;;;;;9.60;1.60;;;;;;;10.36;50.20;99602.10;79303;1301;3013346;-62
2023/04/18 06:05:36;;;;;;;16.10;2.90;;;;;;;10.47;49.93;99602.54;79163;1297;3012035;-61
2023/04/18 06:08:04;;;;;;;22.10;2.80;;;;;;;10.60;49.69;99600.59;77898;1295;3027177;-61
2023/04/18 06:10:32;;;;;;;26.10;2.50;;;;;;;10.83;49.12;99593.60;79351;1295;3013735;-60
2023/04/18 06:12:58;;;;;;;18.80;2.60;;;;;;;10.96;49.23;99590.41;79278;1296;3011538;-61
2023/04/18 06:15:26;;;;;;;12.40;2.20;;;;;;;11.06;48.78;99587.35;78035;1301;3052994;-61
2023/04/18 06:17:53;;;;;;;10.30;1.90;;;;;;;11.17;48.28;99588.40;79239;1301;3020848;-62
2023/04/18 06:20:21;;;;;;;18.10;2.30;;;;;;;11.25;48.10;99587.21;79244;1300;3012836;-60
2023/04/18 06:22:49;;;;;;;22.70;2.20;;;;;;;11.42;47.99;99583.73;77991;1300;3049192;-61
2023/04/18 06:25:16;;;;;;;19.00;2.30;;;;;;;11.57;47.71;99583.64;79239;1300;3020629;-61
2023/04/18 06:27:42;;;;;;;16.90;2.00;;;;;;;11.56;47.84;99584.59;79291;1300;3013247;-61
2023/04/18 06:30:11;;;;;;;23.00;2.10;;;;;;;11.62;47.63;99582.83;78091;1299;3026594;-61
2023/04/18 06:32:37;;;;;;;15.10;2.20;;;;;;;11.53;47.96;99581.48;79296;1296;3013936;-61
2023/04/18 06:35:05;;;;;;;15.70;2.50;;;;;;;11.54;47.99;99584.93;79276;1295;3011651;-61
2023/04/18 06:37:33;;;;;;;21.20;2.30;;;;;;;11.57;47.94;99588.28;78013;1300;3049463;-60
2023/04/18 06:39:59;;;;;;;16.00;3.20;;;;;;;11.72;47.65;99587.49;79191;1300;3018873;-61
2023/04/18 06:42:26;;;;;;;16.90;2.10;;;;;;;11.65;47.59;99585.12;79216;1301;3011645;-61
2023/04/18 06:44:55;;;;;;;11.40;2.30;;;;;;;11.69;47.88;99590.84;78111;1300;3053056;-61
2023/04/18 06:47:22;;;;;;;16.00;1.90;;;;;;;11.72;47.94;99587.81;79205;1300;3012818;-60
2023/04/18 06:49:48;;;;;;;21.50;2.10;;;;;;;11.75;47.98;99580.42;79135;1296;3011578;-58
2023/04/18 06:52:16;;;;;;;24.50;3.10;;;;;;;11.80;47.84;99582.26;77997;1301;3028723;-61
2023/04/18 06:54:42;;;;;;;22.30;2.30;;;;;;;11.86;48.11;99583.41;79204;1301;3012926;-62
2023/04/18 06:57:09;;;;;;;14.00;2.60;;;;;;;11.87;48.16;99585.48;79420;1300;3012791;-60
2023/04/18 06:59:37;;;;;;;14.40;1.70;;;;;;;11.92;48.03;99576.55;78117;1300;3026280;-63
2023/04/18 07:04:32;;;;;;;15.80;2.30;;;;;;;12.17;47.85;99575.83;79748;1303;3013429;-61
2023/04/18 07:07:00;;;;;;;16.20;2.00;;;;;;;12.05;48.15;99578.01;78823;1309;3012808;-62
2023/04/18 07:09:26;;;;;;;16.00;2.10;;;;;;;12.12;48.02;99575.16;78748;1304;3011858;-61
2023/04/18 07:11:54;;;;;;;12.00;1.60;;;;;;;12.25;48.16;99576.23;77469;1317;3053008;-62
2023/04/18 07:14:22;;;;;;;22.80;2.20;;;;;;;12.41;47.80;99573.41;78807;1306;3012986;-61
2023/04/18 07:16:49;;;;;;;21.40;2.80;;;;;;;12.48;47.54;99572.38;76953;1309;3011839;-62
2023/04/18 07:19:17;;;;;;;20.00;2.20;;;;;;;12.52;47.71;99577.06;77695;1303;3050134;-62
2023/04/18 07:21:44;;;;;;;18.10;2.30;;;;;;;12.56;47.29;99571.84;78902;1302;3012631;-61
2023/04/18 07:24:11;;;;;;;19.60;2.10;;;;;;;12.69;47.36;99569.94;78866;1305;3011507;-61
2023/04/18 07:26:39;;;;;;;15.10;2.40;;;;;;;12.81;47.17;99568.60;77708;1304;3028270;-60
2023/04/18 07:29:05;;;;;;;26.20;3.00;;;;;;;12.90;47.29;99565.19;79042;1303;3013464;-67
2023/04/18 07:31:33;;;;;;;18.90;3.30;;;;;;;12.95;47.12;99565.77;78925;1305;3011926;-62
2023/04/18 07:34:01;;;;;;;14.20;2.20;;;;;;;13.05;46.86;99564.48;77706;1304;3049572;-62
2023/04/18 07:36:27;;;;;;;16.60;2.40;;;;;;;13.10;47.06;99564.67;78959;1303;3018634;-62
2023/04/18 07:38:54;;;;;;;20.20;2.40;;;;;;;13.16;47.03;99566.38;78895;1304;3011813;-61
2023/04/18 07:41:22;;;;;;;12.40;2.10;;;;;;;13.12;47.13;99566.33;77777;1303;3028631;-61
2023/04/18 07:43:48;;;;;;;22.00;2.40;;;;;;;12.97;46.98;99568.02;79027;1304;3013377;-62
2023/04/18 07:46:15;;;;;;;14.40;1.70;;;;;;;13.05;46.89;99565.04;79071;1302;3011502;-60
2023/04/18 07:48:42;;;;;;;24.60;1.90;;;;;;;13.07;46.66;99561.39;77904;1303;3028064;-62
2023/04/18 07:51:10;;;;;;;14.10;2.60;;;;;;;13.13;46.94;99559.18;78907;1306;3013254;-62
2023/04/18 07:53:37;;;;;;;21.90;2.20;;;;;;;13.22;47.12;99566.14;79003;1301;3013485;-59
2023/04/18 07:56:05;;;;;;;18.50;3.70;;;;;;;13.29;46.94;99561.25;77779;1304;3051934;-60
2023/04/18 07:58:35;;;;;;;17.60;2.20;;;;;;;13.42;46.62;99557.88;78937;1305;3013867;-61
2023/04/18 08:01:04;;;;;;;12.20;2.00;;;;;;;13.40;46.55;99564.75;78437;1302;3013047;-59
2023/04/18 08:03:33;;;;;;;19.10;2.30;;;;;;;13.31;47.06;99566.25;79133;1300;3014473;-61
2023/04/18 08:06:02;;;;;;;14.70;2.40;;;;;;;13.43;46.95;99571.39;78420;1300;3011737;-61
2023/04/18 08:08:29;;;;;;;15.20;2.10;;;;;;;13.52;46.74;99564.97;79083;1301;3014985;-60
2023/04/18 08:10:56;;;;;;;14.20;1.90;;;;;;;13.57;46.75;99559.80;78981;1301;3011565;-61
2023/04/18 08:13:24;;;;;;;13.00;2.00;;;;;;;13.56;46.85;99556.36;77822;1305;3052712;-63
2023/04/18 08:15:50;;;;;;;16.90;1.80;;;;;;;13.66;46.65;99551.44;78970;1305;3013623;-59
2023/04/18 08:18:18;;;;;;;11.50;1.70;;;;;;;13.71;46.81;99543.91;78941;1304;3011916;-62
2023/04/18 08:20:46;;;;;;;13.60;2.10;;;;;;;13.75;46.76;99545.70;77749;1305;3049768;-61
2023/04/18 08:23:13;;;;;;;11.80;2.20;;;;;;;13.83;46.67;99545.66;78832;1304;3018509;-61
2023/04/18 08:25:40;;;;;;;15.90;1.80;;;;;;;13.94;46.31;99543.95;78781;1303;3011669;-62
2023/04/18 08:28:08;;;;;;;8.50;1.60;;;;;;;14.01;46.76;99544.13;77543;1305;3027430;-61
2023/04/18 08:30:35;;;;;;;16.70;2.00;;;;;;;14.04;46.82;99543.02;78989;1302;3015999;-62
2023/04/18 08:33:01;;;;;;;17.50;2.40;;;;;;;14.11;47.13;99543.06;79069;1302;3011887;-61
2023/04/18 08:35:29;;;;;;;21.50;1.90;;;;;;;14.18;46.81;99539.73;77745;1305;3049262;-60
2023/04/18 08:37:56;;;;;;;23.00;2.50;;;;;;;14.21;46.41;99538.65;79065;1300;3013376;-63
2023/04/18 08:40:23;;;;;;;19.20;2.60;;;;;;;14.20;46.14;99542.39;78865;1300;3011705;-60
2023/04/18 08:42:51;;;;;;;17.20;2.40;;;;;;;14.29;46.59;99545.82;77696;1306;3027376;-63
2023/04/18 08:45:19;;;;;;;20.40;2.40;;;;;;;14.36;46.35;99545.63;78993;1301;3012762;-62
2023/04/18 08:47:46;;;;;;;29.00;2.30;;;;;;;14.39;46.47;99547.88;79152;1300;3011373;-58
2023/04/18 08:50:15;;;;;;;21.20;2.60;;;;;;;14.47;46.46;99551.48;77800;1303;3048849;-59
2023/04/18 08:52:47;;;;;;;17.00;2.40;;;;;;;14.53;46.02;99544.90;79031;1303;3013619;-58
2023/04/18 08:55:15;;;;;;;20.20;3.50;;;;;;;14.63;45.53;99546.32;77690;1306;3052913;-59
2023/04/18 08:57:43;;;;;;;14.10;2.00;;;;;;;14.72;45.29;99543.34;78971;1306;3013133;-61
2023/04/18 09:00:11;;;;;;;16.90;1.90;;;;;;;14.72;45.61;99543.30;78971;1299;3011832;-62
2023/04/18 09:02:43;;;;;;;23.20;2.40;;;;;;;14.80;45.66;99544.09;77830;1303;3056896;-62
2023/04/18 09:05:10;;;;;;;25.50;2.70;;;;;;;14.92;45.06;99542.08;79351;1302;3011867;-61
2023/04/18 09:07:38;;;;;;;17.30;2.80;;;;;;;15.03;45.30;99543.92;77765;1303;3025867;-62
2023/04/18 09:10:06;;;;;;;22.60;2.80;;;;;;;15.05;44.59;99537.07;78886;1305;3013799;-60
2023/04/18 09:12:34;;;;;;;12.60;2.30;;;;;;;15.15;44.41;99537.53;78955;1304;3011583;-61
2023/04/18 09:15:15;;;;;;;16.90;2.30;;;;;;;15.24;44.47;99541.88;77589;1302;3068951;-61
2023/04/18 09:17:52;;;;;;;21.50;2.40;;;;;;;15.23;44.35;99538.80;77629;1305;3052568;-62
2023/04/18 09:20:36;;;;;;;12.20;1.90;;;;;;;15.26;44.39;99533.48;77702;1301;3056370;-64
2023/04/18 09:23:09;;;;;;;15.60;2.10;;;;;;;15.32;44.48;99533.70;77689;1304;3050169;-63
2023/04/18 09:25:43;;;;;;;;;;;;;;;15.45;44.43;99537.47;78968;1300;3011523;-59
2023/04/18 09:28:23;;;;;;;17.20;2.00;;;;;;;15.42;44.17;99532.38;77670;1305;3050050;-60
2023/04/18 09:30:53;;;;;;;12.10;1.80;;;;;;;15.45;44.35;99526.69;77692;1306;3053464;-60
2023/04/18 09:33:27;;;;;;;16.90;3.10;;;;;;;15.46;44.58;99527.17;78995;1304;3015605;-61
2023/04/18 09:35:55;;;;;;;19.10;2.50;;;;;;;15.53;44.21;99520.39;77876;1306;3051572;-61
2023/04/18 09:38:39;;;;;;;18.10;2.20;;;;;;;15.54;44.29;99527.20;79168;1302;3012939;-61
2023/04/18 09:41:09;;;;;;;11.30;1.60;;;;;;;15.74;43.92;99530.71;77598;1302;3054237;-65
2023/04/18 09:43:36;;;;;;;16.40;2.40;;;;;;;15.89;43.85;99529.70;78822;1305;3013504;-61
2023/04/18 09:46:02;;;;;;;18.60;2.60;;;;;;;15.89;43.10;99528.08;78821;1305;3012141;-62
2023/04/18 09:48:30;;;;;;;12.20;2.30;;;;;;;15.93;42.86;99534.66;77694;1305;3068427;-60
2023/04/18 09:50:58;;;;;;;15.60;2.30;;;;;;;16.00;42.78;99537.98;78795;1304;3013288;-60
2023/04/18 09:53:25;;;;;;;20.20;2.00;;;;;;;16.16;42.34;99539.01;78794;1302;3011852;-60
2023/04/18 09:55:53;;;;;;;13.80;1.80;;;;;;;16.25;42.31;99537.89;77677;1309;3053852;-62
2023/04/18 09:58:21;;;;;;;19.00;2.40;;;;;;;16.35;42.24;99535.48;78951;1306;3012773;-63
2023/04/18 10:00:52;;;;;;;13.90;2.00;;;;;;;16.58;42.23;99532.80;78825;1305;3011648;-60
2023/04/18 10:03:20;;;;;;;11.50;1.90;;;;;;;16.74;41.80;99533.61;77646;1305;3068687;-61
2023/04/18 10:05:46;;;;;;;14.60;2.50;;;;;;;16.68;41.86;99534.65;78737;1308;3013440;-61
2023/04/18 10:08:15;;;;;;;15.10;2.80;;;;;;;16.73;41.80;99538.95;78793;1306;3011866;-61
2023/04/18 10:10:42;;;;;;;19.30;2.70;;;;;;;16.65;42.04;99532.58;77591;1305;3053043;-61
2023/04/18 10:13:10;;;;;;;17.00;2.70;;;;;;;16.70;41.79;99533.77;78827;1305;3015930;-59
2023/04/18 10:15:36;;;;;;;23.20;3.10;;;;;;;16.77;42.08;99535.67;78782;1306;3013249;-59
2023/04/18 10:18:13;;;;;;;17.80;2.80;;;;;;;16.88;42.05;99539.16;77523;1308;3026180;-59
2023/04/18 10:20:41;;;;;;;26.90;2.50;;;;;;;17.12;41.66;99542.27;77585;1306;3050624;-61
2023/04/18 10:23:30;;;;;;;13.30;2.50;;;;;;;17.19;41.58;99547.86;78814;1308;3011888;-62
2023/04/18 10:25:59;;;;;;;26.20;3.10;;;;;;;17.16;41.30;99554.33;77569;1305;3053271;-60
2023/04/18 10:28:26;;;;;;;17.70;3.00;;;;;;;17.25;41.23;99547.13;78881;1305;3018390;-60
2023/04/18 10:30:55;;;;;;;23.60;3.50;;;;;;;17.11;41.50;99548.52;78746;1301;3011906;-60
2023/04/18 10:33:31;;;;;;;19.80;3.60;;;;;;;16.84;41.62;99547.77;77600;1316;3069168;-61
2023/04/18 10:36:04;;;;;;;25.70;3.70;;;;;;;16.67;42.34;99542.88;77669;1305;3049868;-63
2023/04/18 10:38:32;;;;;;;21.20;4.60;;;;;;;16.66;42.20;99539.25;78808;1304;3011409;-60
2023/04/18 10:41:18;;;;;;;19.70;3.50;;;;;;;16.61;42.38;99532.02;77551;1314;3048632;-66
2023/04/18 10:44:05;;;;;;;25.90;3.70;;;;;;;16.67;42.57;99532.25;77583;1306;3053259;-61
2023/04/18 10:46:33;;;;;;;24.90;3.20;;;;;;;16.84;42.18;99526.92;77803;1305;3051182;-61
2023/04/18 10:49:12;;;;;;;22.50;3.60;;;;;;;16.94;41.99;99519.25;78985;1305;3013108;-60
2023/04/18 10:51:40;;;;;;;15.00;3.30;;;;;;;17.13;42.13;99512.41;77637;1305;3068298;-63
2023/04/18 10:54:30;;;;;;;16.70;3.30;;;;;;;17.06;42.44;99513.05;79015;1304;3012850;-59
2023/04/18 10:57:00;;;;;;;18.40;2.80;;;;;;;16.89;42.22;99512.70;77701;1314;3049731;-62
2023/04/18 10:59:28;;;;;;;17.90;3.30;;;;;;;16.82;42.06;99510.44;79124;1302;3011623;-62
2023/04/18 11:01:58;;;;;;;20.30;3.00;;;;;;;16.64;42.86;99510.05;77665;1316;3028318;-63
2023/04/18 11:04:25;;;;;;;20.30;3.20;;;;;;;16.46;43.37;99506.63;78775;1305;3013106;-62
2023/04/18 11:06:56;;;;;;;19.40;3.70;;;;;;;16.41;43.34;99502.80;78549;1305;3011691;-62
2023/04/18 11:09:23;;;;;;;18.50;3.20;;;;;;;16.26;43.71;99511.33;78894;1302;3013028;-61
2023/04/18 11:12:06;;;;;;;22.00;3.00;;;;;;;16.31;43.84;99517.09;78860;1302;3011569;-62
2023/04/18 11:14:42;;;;;;;23.80;3.80;;;;;;;16.29;43.82;99524.63;77627;1305;3050480;-61
2023/04/18 11:17:22;;;;;;;13.90;3.10;;;;;;;16.47;43.84;99515.71;78302;1305;3011997;-64
2023/04/18 11:19:51;;;;;;;22.00;4.90;;;;;;;16.56;43.78;99513.34;77625;1306;3053556;-61
2023/04/18 11:22:18;;;;;;;23.40;3.60;;;;;;;16.65;43.69;99517.41;78890;1308;3013064;-60
2023/04/18 11:24:44;;;;;;;21.90;4.60;;;;;;;16.66;43.62;99516.45;78793;1306;3011949;-59
2023/04/18 11:27:12;;;;;;;17.50;3.70;;;;;;;16.72;43.32;99510.21;77698;1305;3068579;-62